Seascale, United Kingdom
Current Conditions -  °F | °C
As of 5:20 PM on Friday 24 Oct 2014 (Local Time) from EGNC Reporting Station
Rain Showers Rain Showers  
Wind Chill: 44°   Ceiling: 3800
Heat Index: 48°   Visibility: 6mi
Dew Point: 46°   Wind: 10mph
Humidity: 93%   Direction: 250°WSW
Pressure: 29.8"   Gusts: NA
Location:  54.4°N, 3.48°W
Report Text: EGNC 241620Z 25009KT 9000 VCSH FEW017 SCT027 BKN038 09/08 Q1009
Loading
Personal Weather Stations






























Interactive Weather Map
Tropical Storm Tracking
New forecast layout! Learn more

10-Day Weather Forecast

Advertisements
Track Severe Weather on mobile